Idaho Falls Regional Airport
KIDA : now visible

Airfield :











YOU CAN JOIN US ON...

 
LOGIN :

Register | Disclaimer

   EN    FR    IT 

 









Legend :    VFR   Marginal VFR   IFR   Intensive IFR   Very Intensive IFR
Visi :
Ceiling :
>= 8 km
>= 3000ft
5 to 8 km
1000 to 3000 ft
1500m to 5 km
500 to 1000 ft
800 to 1500m
200 to 500 ft
< 800m
< 200 ft
Symbols :   Thunderstorms  Fog  Heavy snow  Heavy precipitations  Wind > 20 kt






- Airport Elevation : 4744 ft
- IATA code : IDA


KIDA - Idaho Falls Regional

CURRENT METAR :
  • 162053Z VRB04KT 10SM CLR 34/03 A3012 RMK AO2 SLP151 T03390028 56013

EXPIRED METARs :
  • 161953Z 33004KT 10SM CLR 33/03 A3013 RMK AO2 SLP153 T03330033
  • 161853Z 00000KT 10SM CLR 31/08 A3015 RMK AO2 SLP159 T03110078

TAF KIDA
Valid from the 16 at 18:00 until the 17 at 18:00 UTC


161720Z 1618/1718 35006KT P6SM FEW100
FM171000 02006KT P6SM FEW100
KZLC FIR / North America



MET'MAP, your aeronautical weather chart ! - Copyright ORBIFLY December 2007 - Disclaimer

ORBIFLY MET'MAP TEAM :

Programming & Development : Alexandra Zaïnal
Original concept : Baudouin d'Aumeries
Technical & hardware support : Manuel Goepfert
Assistance : Marc-Olivier Méhu




SOURCES & CREDITS :

   NOAA       Earth
Advisory